createdAt,value
2019-02-16T15:42:14.645Z,32.37
2019-02-16T15:43:29.023Z,28.03
2019-02-16T15:44:29.225Z,26.22
2019-02-16T15:45:29.413Z,25.84
2019-02-16T15:46:29.611Z,29.47
2019-02-16T15:47:29.837Z,29.08
2019-02-16T15:48:31.692Z,27.30
2019-02-16T15:49:31.398Z,28.95
2019-02-16T15:50:31.870Z,29.49
2019-02-16T15:51:31.862Z,30.84
2019-02-16T15:52:32.062Z,31.76
2019-02-16T15:53:32.313Z,32.29
2019-02-16T15:54:32.577Z,31.90
2019-02-16T15:55:32.697Z,32.30
2019-02-16T15:56:32.867Z,32.42
2019-02-16T15:57:33.053Z,32.43
2019-02-16T15:58:33.211Z,32.24
2019-02-16T15:59:35.200Z,34.28
2019-02-16T16:00:34.540Z,34.09
2019-02-16T16:01:33.674Z,34.92
2019-02-16T16:02:33.806Z,33.81
2019-02-16T16:03:34.589Z,35.14
2019-02-16T16:04:34.236Z,35.16
2019-02-16T16:05:34.410Z,39.65
2019-02-16T16:06:34.531Z,40.08
2019-02-16T16:07:34.636Z,40.44
2019-02-16T16:08:34.926Z,39.97
2019-02-16T16:09:35.058Z,40.50
2019-02-16T16:10:35.209Z,40.39
2019-02-16T16:11:35.357Z,41.74
2019-02-16T16:12:35.506Z,42.27
2019-02-16T16:13:35.654Z,43.00
2019-02-16T16:14:35.810Z,43.61
2019-02-16T16:15:41.699Z,42.00
2019-02-16T16:16:38.103Z,43.24
2019-02-16T16:17:36.357Z,43.37
2019-02-16T16:18:36.506Z,43.47
2019-02-16T16:19:36.718Z,42.65
2019-02-16T16:20:36.833Z,43.67
2019-02-16T16:21:38.023Z,43.57
2019-02-16T16:22:37.128Z,43.79
2019-02-16T16:23:37.271Z,43.71
2019-02-16T16:24:37.551Z,43.61
2019-02-16T16:25:38.270Z,43.41
2019-02-16T16:26:38.748Z,44.76
2019-02-16T16:27:38.736Z,45.17
2019-02-16T16:28:38.353Z,46.08
2019-02-16T16:29:38.463Z,45.17
2019-02-16T16:30:38.725Z,44.14
2019-02-16T16:31:38.862Z,44.88
2019-02-16T16:32:39.019Z,45.59
2019-02-16T16:33:39.149Z,45.29
2019-02-16T16:34:39.278Z,45.72
2019-02-16T16:35:40.274Z,46.44
2019-02-16T16:36:39.786Z,46.23
2019-02-16T16:37:39.957Z,47.35
2019-02-16T16:38:40.159Z,49.01
2019-02-16T16:39:40.347Z,49.14
2019-02-16T16:40:41.307Z,49.34
2019-02-16T16:41:40.684Z,49.85
2019-02-16T16:42:40.870Z,49.98
2019-02-16T16:43:41.032Z,50.39
2019-02-16T16:44:41.199Z,50.72
2019-02-16T16:45:41.355Z,51.15
2019-02-16T16:46:41.514Z,51.48
2019-02-16T16:47:41.689Z,51.18
2019-02-16T16:48:41.830Z,51.61
2019-02-16T16:49:41.982Z,52.84
2019-02-16T16:50:42.085Z,53.38
2019-02-16T16:51:42.238Z,52.76
2019-02-16T16:52:42.380Z,53.92
2019-02-16T16:53:42.502Z,54.02
2019-02-16T16:54:42.761Z,56.21
2019-02-16T16:55:42.881Z,58.39
2019-02-16T16:56:43.039Z,58.01
2019-02-16T16:57:43.234Z,58.01
2019-02-16T16:58:43.388Z,57.29
2019-02-16T16:59:43.511Z,59.75
2019-02-16T17:00:43.640Z,58.14
2019-02-16T17:01:43.760Z,56.90
2019-02-16T17:02:44.052Z,57.82
2019-02-16T17:17:01.466Z,65.21
2019-02-16T17:18:03.929Z,65.28
2019-02-16T17:19:02.459Z,66.14
2019-02-16T17:20:02.999Z,65.00
2019-02-16T17:21:04.087Z,65.45
2019-02-16T17:22:02.890Z,66.30
2019-02-16T17:23:03.001Z,66.41
2019-02-16T17:24:03.285Z,67.03
2019-02-16T17:25:04.722Z,66.20
2019-02-16T17:26:03.610Z,66.30
2019-02-16T17:27:03.771Z,66.23
2019-02-16T17:28:03.872Z,67.47
2019-02-16T17:29:03.962Z,67.27
2019-02-16T17:30:04.280Z,67.19
2019-02-16T17:31:04.402Z,67.91
2019-02-16T17:32:04.606Z,68.23
2019-02-16T17:33:04.859Z,69.22
2019-02-16T17:34:04.969Z,68.91
2019-02-16T17:35:05.065Z,69.43
2019-02-16T17:36:05.259Z,70.67
2019-02-16T17:37:05.450Z,70.50
2019-02-16T17:38:05.610Z,69.77
2019-02-16T17:39:05.770Z,70.29
2019-02-16T17:40:05.968Z,70.53
2019-02-16T17:41:06.261Z,71.88
2019-02-16T17:42:06.406Z,71.59
2019-02-16T17:43:06.526Z,71.77
2019-02-16T17:44:06.715Z,72.32
2019-02-16T17:45:06.942Z,72.42
2019-02-16T17:46:07.121Z,73.28
2019-02-16T17:47:07.279Z,73.60
2019-02-16T17:48:07.420Z,74.01
2019-02-16T17:49:07.594Z,73.39
2019-02-16T17:50:07.700Z,74.26
2019-02-16T17:51:07.800Z,74.05
2019-02-16T17:52:08.063Z,74.26
2019-02-16T17:53:08.236Z,74.67
2019-02-16T17:54:08.917Z,75.74
2019-02-16T17:55:09.737Z,75.85
2019-02-16T17:56:08.922Z,75.95
2019-02-16T17:57:09.153Z,76.68
2019-02-16T17:58:11.148Z,76.71
2019-02-16T17:59:09.297Z,76.19
2019-02-16T18:30:32.017Z,82.86
2019-02-16T18:31:33.139Z,83.69
2019-02-16T18:32:33.350Z,83.17
2019-02-16T18:33:33.751Z,83.69
2019-02-16T18:34:33.742Z,83.69
2019-02-16T18:35:34.078Z,83.42
2019-02-16T18:36:34.595Z,83.06
2019-02-16T18:37:36.198Z,82.17
2019-02-16T18:38:35.562Z,81.85
2019-02-16T18:39:34.892Z,82.72
2019-02-16T18:40:35.078Z,83.56
2019-02-16T18:41:35.354Z,83.25
2019-02-16T18:42:35.391Z,84.28
2019-02-16T18:43:35.600Z,85.33
2019-02-16T18:44:35.764Z,84.18
2019-02-16T18:45:35.916Z,83.45
2019-02-16T18:46:36.101Z,84.50
2019-02-16T18:47:36.255Z,84.18
2019-02-16T18:48:36.370Z,84.01
2019-02-16T18:49:36.630Z,83.07
2019-02-16T18:50:36.984Z,84.22
2019-02-16T18:51:37.616Z,86.20
2019-02-16T18:52:37.273Z,85.58
2019-02-16T18:53:37.747Z,86.30
2019-02-16T18:54:37.628Z,85.47
2019-02-16T18:55:37.716Z,85.78
2019-02-16T18:56:37.984Z,85.61
2019-02-16T18:57:38.129Z,85.82
2019-02-16T18:58:38.284Z,86.03
2019-02-16T18:59:39.074Z,86.69
2019-02-16T20:00:33.780Z,88.79
2019-02-16T20:01:36.997Z,88.17
2019-02-16T20:02:35.613Z,88.37
2019-02-16T20:03:36.993Z,88.17
2019-02-16T20:04:40.296Z,88.59
2019-02-16T20:08:22.416Z,91.52
2019-02-16T20:10:18.616Z,91.31
2019-02-16T20:11:20.559Z,92.10
2019-02-16T20:12:18.414Z,91.89
2019-02-16T20:13:18.433Z,91.27
2019-02-16T20:14:18.573Z,90.43
2019-02-16T20:15:18.999Z,90.53
2019-02-16T20:16:19.290Z,90.33
2019-02-16T20:17:42.470Z,90.33
2019-02-16T20:18:25.119Z,90.99
2019-02-16T20:19:22.973Z,90.64
2019-02-16T20:20:20.751Z,90.64
2019-02-16T20:21:20.936Z,91.47
2019-02-16T20:22:21.257Z,92.58
2019-02-16T20:23:21.351Z,93.11
2019-02-16T20:24:21.580Z,92.27
2019-02-16T20:25:21.836Z,92.23
2019-02-16T20:26:21.976Z,91.71
2019-02-16T20:27:22.049Z,91.39
2019-02-16T20:28:22.335Z,91.02
2019-02-16T20:29:22.318Z,90.81
2019-02-16T20:30:22.535Z,90.43
2019-02-16T20:31:22.721Z,89.65
2019-02-16T20:32:22.905Z,89.48
2019-02-16T20:33:23.077Z,89.38
2019-02-16T20:34:23.286Z,89.07
2019-02-16T20:35:23.421Z,89.17
2019-02-16T20:36:23.599Z,89.32
2019-02-16T20:37:24.589Z,88.90
2019-02-16T20:38:24.046Z,88.37
2019-02-16T20:39:24.173Z,88.06
2019-02-16T20:40:24.423Z,88.62
2019-02-16T20:41:24.633Z,88.94
2019-02-16T20:42:24.840Z,88.62
2019-02-16T20:43:25.119Z,88.42
2019-02-16T20:44:25.188Z,88.14
2019-02-16T20:45:25.320Z,88.46
2019-02-16T20:46:25.517Z,88.98
2019-02-16T20:47:25.734Z,89.40
2019-02-16T20:48:25.866Z,89.40
2019-02-16T20:49:26.007Z,89.92
2019-02-16T20:50:26.197Z,90.97
2019-02-16T20:51:26.420Z,91.71
2019-02-16T20:52:26.662Z,91.81
2019-02-16T20:53:26.881Z,91.39
2019-02-16T20:54:27.012Z,90.76
2019-02-16T20:55:27.203Z,91.18
2019-02-16T20:56:27.389Z,90.55
2019-02-16T20:57:27.627Z,90.49
2019-02-16T20:58:27.796Z,89.44
2019-02-16T20:59:27.867Z,89.75
2019-02-16T21:25:38.862Z,88.79
2019-02-16T21:26:37.140Z,88.37
2019-02-16T21:28:10.450Z,89.04
2019-02-16T21:32:34.919Z,90.72
2019-02-16T21:35:33.784Z,92.19
2019-02-16T21:36:36.905Z,91.56
2019-02-16T21:37:35.129Z,92.67
2019-02-16T21:38:51.370Z,92.57
2019-02-16T21:40:35.466Z,93.47
2019-02-16T21:40:54.890Z,93.88
2019-02-16T21:48:16.912Z,91.72
